Time;durP1;ratioP1;P1;durP2;ratioP2;P2;SDS_P1;SDS_P2;PMS_P1;PMS_P2;Temp;Humidity;BMP_temperature;BMP_pressure;BME280_temperature;BME280_humidity;BME280_pressure;Samples;Min_cycle;Max_cycle;Signal;HPM_P1;HPM_P2
2022/07/22 00:00:27;;;;;;;14.10;5.40;;;16.10;83.60;;;;;;5060985;28;20043;-72
2022/07/22 00:02:53;;;;;;;12.35;5.05;;;16.20;83.70;;;;;;5060144;28;20033;-73
2022/07/22 00:05:18;;;;;;;13.32;4.57;;;16.10;83.70;;;;;;5061874;28;20043;-73
2022/07/22 00:07:44;;;;;;;14.63;5.00;;;16.10;83.70;;;;;;5061150;28;20028;-73
2022/07/22 00:10:13;;;;;;;17.20;5.57;;;16.10;83.50;;;;;;5060781;28;20455;-73
2022/07/22 00:12:39;;;;;;;13.43;4.22;;;16.10;83.50;;;;;;5059067;28;20498;-72
2022/07/22 00:15:07;;;;;;;12.52;4.85;;;16.10;83.70;;;;;;5061204;28;20067;-73
2022/07/22 00:17:33;;;;;;;12.98;5.72;;;16.10;83.70;;;;;;5060521;28;20032;-73
2022/07/22 00:19:58;;;;;;;12.10;5.10;;;16.10;83.80;;;;;;5060194;28;20090;-74
2022/07/22 00:22:24;;;;;;;9.88;4.55;;;16.10;83.80;;;;;;5059897;28;20020;-73
2022/07/22 00:24:50;;;;;;;10.60;4.45;;;16.00;83.70;;;;;;5060126;28;20136;-73
2022/07/22 00:27:16;;;;;;;12.48;5.13;;;16.00;83.70;;;;;;5060728;28;20116;-73
2022/07/22 00:29:41;;;;;;;11.18;4.97;;;16.00;83.80;;;;;;5059642;28;20051;-73
2022/07/22 00:32:07;;;;;;;13.32;4.80;;;16.00;83.70;;;;;;5059578;28;20033;-73
2022/07/22 00:34:33;;;;;;;11.05;4.28;;;16.00;83.60;;;;;;5060066;28;20071;-73
2022/07/22 00:36:58;;;;;;;12.77;4.90;;;15.90;83.70;;;;;;5060399;28;20040;-73
2022/07/22 00:39:24;;;;;;;12.57;5.40;;;15.90;83.70;;;;;;5061147;28;21554;-73
2022/07/22 00:41:50;;;;;;;12.00;4.95;;;16.00;83.70;;;;;;5056442;28;20029;-73
2022/07/22 00:44:16;;;;;;;12.07;5.22;;;16.00;83.70;;;;;;5063037;28;20021;-73
2022/07/22 00:46:42;;;;;;;11.95;5.82;;;16.00;83.70;;;;;;5058899;28;20052;-73
2022/07/22 00:49:08;;;;;;;14.73;5.22;;;16.10;83.80;;;;;;5061895;28;20456;-73
2022/07/22 00:51:35;;;;;;;15.10;6.28;;;16.10;83.60;;;;;;5059948;28;20108;-73
2022/07/22 00:54:02;;;;;;;16.05;5.85;;;16.10;83.70;;;;;;5062279;28;20584;-73
2022/07/22 00:56:28;;;;;;;13.35;5.85;;;16.10;83.70;;;;;;5062189;28;20128;-73
2022/07/22 00:58:56;;;;;;;12.35;5.93;;;16.10;83.60;;;;;;5062335;28;20036;-73
2022/07/22 01:01:22;;;;;;;11.55;5.78;;;16.00;83.80;;;;;;5056945;28;20101;-72
2022/07/22 01:03:48;;;;;;;14.75;5.95;;;16.10;83.80;;;;;;5058916;28;20041;-72
2022/07/22 01:06:14;;;;;;;13.63;6.05;;;16.10;83.80;;;;;;5060184;28;20036;-73
2022/07/22 01:08:40;;;;;;;13.50;6.40;;;16.10;83.80;;;;;;5059339;28;20060;-73
2022/07/22 01:11:08;;;;;;;14.45;6.85;;;16.00;83.90;;;;;;5058990;28;20071;-73
2022/07/22 01:13:33;;;;;;;13.35;6.25;;;15.90;84.20;;;;;;5056507;28;20039;-73
2022/07/22 01:15:59;;;;;;;13.48;6.50;;;15.80;84.40;;;;;;5059066;28;20040;-73
2022/07/22 01:18:25;;;;;;;15.60;6.25;;;15.70;84.50;;;;;;5056909;28;20469;-73
2022/07/22 01:20:50;;;;;;;12.68;5.25;;;15.70;84.60;;;;;;5058383;28;20048;-73
2022/07/22 01:23:16;;;;;;;11.98;5.88;;;15.70;84.80;;;;;;5058798;28;20462;-73
2022/07/22 01:25:42;;;;;;;12.90;5.70;;;15.70;84.90;;;;;;5059613;28;20105;-73
2022/07/22 01:28:07;;;;;;;12.40;5.70;;;15.70;85.00;;;;;;5058949;28;20033;-73
2022/07/22 01:30:33;;;;;;;14.82;6.05;;;15.70;85.00;;;;;;5058353;28;20486;-73
2022/07/22 01:32:59;;;;;;;12.02;5.78;;;15.60;84.80;;;;;;5063221;28;20474;-73
2022/07/22 01:35:24;;;;;;;13.90;6.10;;;15.60;84.80;;;;;;5057149;28;20036;-73
2022/07/22 01:37:50;;;;;;;10.77;5.53;;;15.60;84.60;;;;;;5057863;28;20189;-73
2022/07/22 01:40:15;;;;;;;12.30;5.90;;;15.60;84.70;;;;;;5056383;28;20550;-73
2022/07/22 01:42:41;;;;;;;11.05;5.90;;;15.50;84.70;;;;;;5056487;28;20024;-72
2022/07/22 01:45:07;;;;;;;11.38;5.70;;;15.50;84.80;;;;;;5056639;28;20039;-73
2022/07/22 01:47:33;;;;;;;12.30;5.63;;;15.50;84.90;;;;;;5061299;28;20581;-72
2022/07/22 01:49:59;;;;;;;9.88;5.53;;;15.50;85.00;;;;;;5058138;28;20285;-72
2022/07/22 01:52:24;;;;;;;9.82;5.47;;;15.50;85.00;;;;;;5057986;28;20558;-72
2022/07/22 01:54:50;;;;;;;11.73;5.13;;;15.50;85.00;;;;;;5059694;28;20047;-72
2022/07/22 01:57:15;;;;;;;12.15;5.70;;;15.50;85.00;;;;;;5056828;28;20114;-73
2022/07/22 01:59:41;;;;;;;11.93;5.32;;;15.60;85.10;;;;;;5059362;28;20033;-72
2022/07/22 02:02:07;;;;;;;12.77;5.90;;;15.60;85.00;;;;;;5058242;28;20347;-73
2022/07/22 02:04:32;;;;;;;12.85;6.07;;;15.60;85.10;;;;;;5066953;28;20028;-72
2022/07/22 02:06:58;;;;;;;15.02;6.38;;;15.60;85.00;;;;;;5057776;28;20457;-72
2022/07/22 02:09:24;;;;;;;16.52;8.13;;;15.70;85.10;;;;;;5055612;28;20040;-72
2022/07/22 02:11:49;;;;;;;12.95;6.72;;;15.70;85.10;;;;;;5058376;28;20404;-72
2022/07/22 02:14:15;;;;;;;11.80;6.30;;;15.70;85.10;;;;;;5058261;28;20106;-71
2022/07/22 02:16:41;;;;;;;11.80;5.50;;;15.80;85.00;;;;;;5056970;28;20037;-72
2022/07/22 02:19:06;;;;;;;12.68;5.70;;;15.80;84.80;;;;;;5058436;28;20033;-72
2022/07/22 02:21:32;;;;;;;12.27;6.72;;;15.80;84.80;;;;;;5059027;28;20044;-73
2022/07/22 02:23:58;;;;;;;13.57;6.25;;;15.80;84.80;;;;;;5059117;28;20033;-72
2022/07/22 02:26:23;;;;;;;10.55;5.68;;;15.80;84.80;;;;;;5057616;28;20322;-72
2022/07/22 02:28:49;;;;;;;10.57;6.50;;;15.80;84.70;;;;;;5056372;28;20039;-72
2022/07/22 02:31:15;;;;;;;11.63;5.70;;;15.70;84.80;;;;;;5052378;28;20036;-73
2022/07/22 02:33:40;;;;;;;11.60;6.22;;;15.80;84.80;;;;;;5060552;28;20039;-72
2022/07/22 02:36:06;;;;;;;11.95;6.40;;;15.80;84.80;;;;;;5058362;28;20139;-72
2022/07/22 02:38:32;;;;;;;15.75;6.60;;;15.80;84.70;;;;;;5055210;28;20033;-72
2022/07/22 02:40:58;;;;;;;12.45;6.38;;;15.80;84.60;;;;;;5057123;28;20378;-72
2022/07/22 02:43:23;;;;;;;11.68;6.07;;;15.90;84.50;;;;;;5058373;28;20040;-73
2022/07/22 02:45:49;;;;;;;13.15;6.22;;;15.90;84.40;;;;;;5056689;28;20032;-73
2022/07/22 02:48:15;;;;;;;12.60;6.57;;;15.90;84.40;;;;;;5057775;28;20499;-72
2022/07/22 02:50:48;;;;;;;13.55;5.97;;;15.90;84.40;;;;;;5058350;28;20094;-72
2022/07/22 02:53:14;;;;;;;13.60;6.55;;;15.90;84.40;;;;;;5057476;28;20086;-73
2022/07/22 02:55:40;;;;;;;13.80;6.45;;;15.90;84.30;;;;;;5057471;28;20037;-72
2022/07/22 02:58:07;;;;;;;12.10;5.88;;;15.90;84.30;;;;;;5057188;28;20306;-72
2022/07/22 03:00:33;;;;;;;10.95;6.00;;;15.90;84.30;;;;;;5061362;28;20409;-73
2022/07/22 03:02:59;;;;;;;13.30;6.47;;;15.80;84.30;;;;;;5065592;28;20098;-72
2022/07/22 03:05:24;;;;;;;17.08;6.65;;;15.90;84.20;;;;;;5062718;28;20115;-72
2022/07/22 03:07:50;;;;;;;17.67;6.80;;;15.90;84.10;;;;;;5060391;28;20498;-72
2022/07/22 03:10:15;;;;;;;15.27;6.90;;;15.90;84.20;;;;;;5061709;28;20438;-72
2022/07/22 03:12:41;;;;;;;14.50;6.50;;;15.90;84.10;;;;;;5060586;28;20025;-73
2022/07/22 03:15:07;;;;;;;12.32;6.10;;;15.90;84.10;;;;;;5062174;28;20594;-72
2022/07/22 03:17:37;;;;;;;12.02;6.22;;;15.90;84.20;;;;;;5061467;28;20220;-72
2022/07/22 03:20:04;;;;;;;17.38;7.70;;;15.80;84.30;;;;;;5062390;28;20476;-73
2022/07/22 03:22:30;;;;;;;13.63;6.95;;;15.80;84.10;;;;;;5060335;28;20036;-73
2022/07/22 03:24:56;;;;;;;13.00;6.40;;;15.80;84.40;;;;;;5060591;28;20480;-73
2022/07/22 03:27:21;;;;;;;15.05;6.85;;;15.80;84.50;;;;;;5061185;28;20523;-72
2022/07/22 03:29:47;;;;;;;10.65;5.50;;;15.80;84.60;;;;;;5061283;28;20392;-72
2022/07/22 03:32:13;;;;;;;13.65;6.20;;;15.90;84.50;;;;;;5061162;28;20103;-72
2022/07/22 03:34:38;;;;;;;14.50;6.35;;;15.90;84.50;;;;;;5065934;28;20044;-73
2022/07/22 03:37:04;;;;;;;16.48;6.60;;;15.90;84.50;;;;;;5057317;28;20073;-73
2022/07/22 03:39:30;;;;;;;10.82;6.05;;;15.90;84.50;;;;;;5065411;28;20040;-72
2022/07/22 03:41:55;;;;;;;14.40;6.47;;;15.90;84.40;;;;;;5060158;28;20048;-72
2022/07/22 03:44:21;;;;;;;11.43;6.30;;;15.90;84.40;;;;;;5062901;28;20040;-73
2022/07/22 03:46:47;;;;;;;14.98;6.40;;;15.90;84.40;;;;;;5063452;28;20028;-72
2022/07/22 03:49:12;;;;;;;17.65;7.55;;;16.00;84.40;;;;;;5062319;28;20044;-73
2022/07/22 03:51:38;;;;;;;15.48;7.43;;;15.80;84.00;;;;;;5057992;28;20116;-72
2022/07/22 03:54:04;;;;;;;15.55;7.10;;;15.70;84.10;;;;;;5060090;28;20034;-72
2022/07/22 03:56:29;;;;;;;14.02;7.32;;;15.60;84.80;;;;;;5060473;28;20739;-72
2022/07/22 03:58:55;;;;;;;13.63;7.60;;;15.60;85.00;;;;;;5065104;28;20029;-73
2022/07/22 04:01:21;;;;;;;19.95;8.25;;;15.60;85.20;;;;;;5059986;28;20487;-72
2022/07/22 04:03:48;;;;;;;14.25;7.38;;;15.60;85.30;;;;;;5060039;28;20098;-73
2022/07/22 04:06:14;;;;;;;14.10;7.57;;;15.60;85.60;;;;;;5059337;28;20456;-73
2022/07/22 04:08:40;;;;;;;14.25;7.55;;;15.60;85.60;;;;;;5059031;28;20535;-73
2022/07/22 04:11:05;;;;;;;13.52;7.70;;;15.60;85.50;;;;;;5056154;28;20050;-73
2022/07/22 04:13:31;;;;;;;15.15;7.68;;;15.70;85.50;;;;;;5055171;28;20040;-73
2022/07/22 04:15:56;;;;;;;14.85;8.00;;;15.80;85.30;;;;;;5057467;28;20056;-73
2022/07/22 04:18:22;;;;;;;12.73;8.05;;;15.80;85.10;;;;;;5058632;28;20025;-73
2022/07/22 04:20:48;;;;;;;17.35;7.38;;;15.90;84.90;;;;;;5060594;28;20143;-73
2022/07/22 04:23:14;;;;;;;15.32;7.93;;;16.00;84.70;;;;;;5061204;28;20037;-73
2022/07/22 04:25:40;;;;;;;14.73;7.20;;;16.00;84.50;;;;;;5060401;28;20032;-74
2022/07/22 04:28:06;;;;;;;15.38;7.90;;;16.00;84.30;;;;;;5061080;28;20495;-73
2022/07/22 04:30:32;;;;;;;16.52;7.47;;;16.00;84.20;;;;;;5056479;28;20041;-73
2022/07/22 04:32:58;;;;;;;17.17;7.90;;;16.10;84.10;;;;;;5060749;28;20044;-73
2022/07/22 04:35:24;;;;;;;15.90;8.15;;;16.10;84.20;;;;;;5058906;28;20305;-73
2022/07/22 04:37:50;;;;;;;17.33;7.13;;;16.10;83.90;;;;;;5060629;28;20040;-73
2022/07/22 04:40:16;;;;;;;13.23;7.47;;;16.10;83.80;;;;;;5056824;28;20405;-74
2022/07/22 04:42:41;;;;;;;17.13;7.35;;;16.10;83.70;;;;;;5060242;28;20112;-74
2022/07/22 04:45:07;;;;;;;13.65;8.18;;;16.10;83.60;;;;;;5058648;28;20500;-73
2022/07/22 04:47:33;;;;;;;14.52;7.72;;;16.10;83.80;;;;;;5058326;28;20574;-73
2022/07/22 04:49:58;;;;;;;13.93;7.90;;;16.10;83.80;;;;;;5060817;28;20131;-73
2022/07/22 04:52:24;;;;;;;14.15;7.97;;;16.10;83.70;;;;;;5058271;28;20029;-73
2022/07/22 04:54:50;;;;;;;14.10;8.00;;;16.20;83.90;;;;;;5060609;28;20111;-73
2022/07/22 04:57:16;;;;;;;14.93;7.80;;;16.20;83.60;;;;;;5057565;28;20037;-73
2022/07/22 04:59:41;;;;;;;15.93;7.38;;;16.30;83.60;;;;;;5058460;28;20476;-73
2022/07/22 05:02:07;;;;;;;15.43;7.85;;;16.20;83.40;;;;;;5058515;28;20048;-73
2022/07/22 05:04:33;;;;;;;17.92;7.90;;;16.30;83.30;;;;;;5058229;28;20068;-73
2022/07/22 05:06:59;;;;;;;14.65;8.43;;;16.30;83.40;;;;;;5058962;28;20095;-73
2022/07/22 05:09:24;;;;;;;15.38;7.78;;;16.20;83.30;;;;;;5056476;28;20106;-73
2022/07/22 05:11:50;;;;;;;19.35;7.85;;;16.20;83.30;;;;;;5060228;28;20036;-73
2022/07/22 05:14:16;;;;;;;14.20;7.82;;;16.30;83.40;;;;;;5057721;28;20116;-73
2022/07/22 05:16:41;;;;;;;16.30;7.43;;;16.20;83.50;;;;;;5062937;28;20040;-73
2022/07/22 05:19:07;;;;;;;15.15;7.60;;;16.20;83.60;;;;;;5059429;28;20031;-73
2022/07/22 05:21:33;;;;;;;15.93;8.23;;;16.30;83.70;;;;;;5058852;28;20052;-73
2022/07/22 05:23:59;;;;;;;14.80;8.38;;;16.40;83.50;;;;;;5058130;28;20040;-73
2022/07/22 05:26:25;;;;;;;14.43;7.82;;;16.40;83.30;;;;;;5057426;28;20527;-73
2022/07/22 05:28:50;;;;;;;13.98;8.00;;;16.30;83.80;;;;;;5058472;28;20494;-73
2022/07/22 05:31:16;;;;;;;16.48;7.63;;;16.30;83.80;;;;;;5054948;28;20461;-73
2022/07/22 05:33:42;;;;;;;19.23;7.88;;;16.20;84.10;;;;;;5059834;28;20036;-73
2022/07/22 05:36:09;;;;;;;15.20;8.10;;;16.40;84.00;;;;;;5061070;28;20036;-73
2022/07/22 05:38:35;;;;;;;17.95;8.48;;;16.40;83.60;;;;;;5059409;28;20036;-74
2022/07/22 05:41:01;;;;;;;14.40;8.00;;;16.40;83.70;;;;;;5057641;28;20403;-73
2022/07/22 05:43:27;;;;;;;15.90;7.50;;;16.50;83.60;;;;;;5062749;28;20326;-73
2022/07/22 05:45:53;;;;;;;14.38;7.57;;;16.70;83.10;;;;;;5060171;28;20055;-73
2022/07/22 05:48:18;;;;;;;13.35;7.55;;;16.60;82.60;;;;;;5057085;28;20040;-73
2022/07/22 05:50:44;;;;;;;18.17;7.63;;;16.80;82.50;;;;;;5058091;28;20055;-73
2022/07/22 05:53:10;;;;;;;13.80;7.53;;;16.80;81.70;;;;;;5054627;28;20119;-73
2022/07/22 05:55:36;;;;;;;13.40;6.38;;;16.90;82.00;;;;;;5057367;28;20208;-72
2022/07/22 05:58:01;;;;;;;12.55;6.68;;;17.00;81.40;;;;;;5058200;28;20050;-74
2022/07/22 06:00:27;;;;;;;13.68;6.85;;;17.10;81.10;;;;;;5060802;28;20044;-72
2022/07/22 06:02:53;;;;;;;16.60;6.90;;;17.30;80.40;;;;;;5058632;28;20028;-73
2022/07/22 06:05:19;;;;;;;11.45;6.10;;;17.30;80.00;;;;;;5057628;28;20041;-73
2022/07/22 06:07:44;;;;;;;15.27;6.65;;;17.40;80.40;;;;;;5057454;28;20036;-73
2022/07/22 06:10:10;;;;;;;11.38;6.05;;;17.60;80.00;;;;;;5058590;28;20122;-72
2022/07/22 06:12:36;;;;;;;12.30;5.72;;;17.70;79.10;;;;;;5058651;28;20032;-73
2022/07/22 06:15:02;;;;;;;16.30;5.57;;;17.90;77.90;;;;;;5057468;28;20035;-73
2022/07/22 06:17:28;;;;;;;9.50;4.35;;;17.90;77.50;;;;;;5059053;28;20070;-72
2022/07/22 06:19:53;;;;;;;13.88;4.50;;;17.90;77.50;;;;;;5054177;28;20036;-72
2022/07/22 06:22:19;;;;;;;13.43;4.95;;;18.00;76.90;;;;;;5060211;28;20059;-72
2022/07/22 06:24:45;;;;;;;10.15;4.50;;;17.90;77.10;;;;;;5058689;28;20044;-72
2022/07/22 06:27:10;;;;;;;11.23;4.22;;;17.80;76.70;;;;;;5061884;28;20078;-72
2022/07/22 06:29:36;;;;;;;11.77;4.03;;;18.00;76.70;;;;;;5059306;28;20574;-72
2022/07/22 06:32:02;;;;;;;11.25;4.10;;;18.00;76.00;;;;;;5059963;28;20040;-73
2022/07/22 06:34:29;;;;;;;15.75;4.95;;;18.10;75.80;;;;;;5060327;28;20476;-73
2022/07/22 06:36:55;;;;;;;12.68;4.45;;;18.20;75.80;;;;;;5067941;28;20051;-73
2022/07/22 06:39:21;;;;;;;10.15;3.90;;;18.40;75.40;;;;;;5063335;28;20066;-73
2022/07/22 06:41:47;;;;;;;9.75;3.95;;;18.60;74.80;;;;;;5063494;28;20418;-73
2022/07/22 06:44:12;;;;;;;12.27;4.15;;;18.60;74.50;;;;;;5061763;28;20044;-74
2022/07/22 06:46:38;;;;;;;8.88;3.67;;;18.80;73.80;;;;;;5063741;28;20028;-74
2022/07/22 06:49:04;;;;;;;10.95;3.85;;;19.00;73.60;;;;;;5065301;28;20062;-74
2022/07/22 06:51:30;;;;;;;9.27;3.50;;;19.00;71.80;;;;;;5063127;28;20052;-73
2022/07/22 06:53:56;;;;;;;10.90;3.38;;;19.10;72.60;;;;;;5062787;28;20040;-73
2022/07/22 06:56:21;;;;;;;11.98;3.20;;;19.30;71.50;;;;;;5066011;28;20040;-74
2022/07/22 06:58:47;;;;;;;9.32;3.20;;;19.30;71.20;;;;;;5064587;28;20040;-74
2022/07/22 07:01:13;;;;;;;11.07;3.60;;;19.40;71.50;;;;;;5066307;28;20114;-73
2022/07/22 07:03:39;;;;;;;15.82;4.65;;;19.50;71.10;;;;;;5066643;28;20450;-73
2022/07/22 07:06:08;;;;;;;9.48;4.05;;;19.60;70.90;;;;;;5063509;28;20210;-73
2022/07/22 07:08:33;;;;;;;9.63;3.83;;;19.40;70.90;;;;;;5067636;28;20036;-73
2022/07/22 07:10:59;;;;;;;14.18;4.65;;;19.10;70.80;;;;;;5064246;28;20049;-73
2022/07/22 07:13:25;;;;;;;10.35;3.40;;;18.90;71.50;;;;;;5063493;28;21385;-73
2022/07/22 07:15:51;;;;;;;11.48;3.38;;;19.00;72.50;;;;;;5062556;28;20447;-73
2022/07/22 07:18:17;;;;;;;12.48;4.00;;;19.00;71.10;;;;;;5066009;28;20036;-73
2022/07/22 07:20:43;;;;;;;12.82;3.45;;;19.20;72.00;;;;;;5067984;28;20076;-73
2022/07/22 07:23:08;;;;;;;8.77;3.78;;;19.20;70.50;;;;;;5060806;28;20307;-73
2022/07/22 07:25:34;;;;;;;10.07;3.80;;;19.00;71.30;;;;;;5065459;28;20236;-73
2022/07/22 07:28:00;;;;;;;10.75;3.95;;;19.00;71.30;;;;;;5064594;28;20479;-74
2022/07/22 07:30:26;;;;;;;8.82;3.50;;;19.10;71.00;;;;;;5061789;28;20487;-74
2022/07/22 07:32:52;;;;;;;11.70;3.63;;;19.10;70.50;;;;;;5064741;28;20594;-74
2022/07/22 07:35:18;;;;;;;10.27;3.63;;;19.10;70.00;;;;;;5066642;28;20082;-74
2022/07/22 07:37:43;;;;;;;10.15;3.40;;;19.30;70.00;;;;;;5062881;28;20451;-74
2022/07/22 07:40:09;;;;;;;15.02;4.07;;;19.30;70.30;;;;;;5062177;28;20040;-74
2022/07/22 07:42:35;;;;;;;13.40;4.43;;;19.60;69.70;;;;;;5064175;28;20119;-74
2022/07/22 07:45:01;;;;;;;13.05;4.03;;;19.50;68.70;;;;;;5062113;28;20051;-74
2022/07/22 07:47:27;;;;;;;13.52;4.20;;;19.60;69.00;;;;;;5065536;28;20522;-74
2022/07/22 07:49:53;;;;;;;13.95;4.18;;;19.60;69.30;;;;;;5060376;28;20068;-73
2022/07/22 07:52:18;;;;;;;12.15;4.25;;;19.90;68.90;;;;;;5059096;28;20036;-74
2022/07/22 07:54:44;;;;;;;11.25;4.00;;;20.10;68.30;;;;;;5065960;28;20214;-74
2022/07/22 07:57:11;;;;;;;12.07;4.00;;;20.40;67.40;;;;;;5061767;28;20392;-74
2022/07/22 07:59:40;;;;;;;10.60;4.15;;;20.90;66.60;;;;;;5063423;28;20345;-75
2022/07/22 08:02:07;;;;;;;11.63;3.83;;;21.20;65.30;;;;;;5060230;28;20044;-72
2022/07/22 08:04:34;;;;;;;12.45;3.65;;;20.90;64.00;;;;;;5063374;28;20029;-73
2022/07/22 08:07:00;;;;;;;8.43;3.67;;;20.90;64.50;;;;;;5061486;28;20222;-74
2022/07/22 08:09:26;;;;;;;12.07;3.88;;;20.90;65.10;;;;;;5059000;28;20051;-73
2022/07/22 08:11:52;;;;;;;10.10;4.15;;;20.70;64.30;;;;;;5064433;28;20120;-73
2022/07/22 08:14:19;;;;;;;11.13;4.38;;;20.20;66.30;;;;;;5060238;28;20220;-72
2022/07/22 08:16:44;;;;;;;9.60;3.45;;;20.40;66.00;;;;;;5061180;28;20392;-73
2022/07/22 08:19:10;;;;;;;9.63;4.25;;;20.50;65.40;;;;;;5061441;28;20806;-73
2022/07/22 08:21:35;;;;;;;10.55;4.05;;;20.70;64.80;;;;;;5059162;28;20102;-73
2022/07/22 08:24:01;;;;;;;11.68;3.70;;;20.80;65.10;;;;;;5054591;28;20556;-75
2022/07/22 08:26:27;;;;;;;8.82;3.25;;;20.80;64.40;;;;;;5064312;28;20102;-74
2022/07/22 08:28:53;;;;;;;9.65;3.45;;;20.90;63.30;;;;;;5057866;28;20426;-73
2022/07/22 08:31:19;;;;;;;9.02;3.53;;;20.60;64.00;;;;;;5065010;28;20047;-73
2022/07/22 08:33:44;;;;;;;10.38;4.05;;;20.50;64.20;;;;;;5065223;28;20036;-74
2022/07/22 08:36:10;;;;;;;12.23;4.20;;;20.60;64.10;;;;;;5062558;28;20079;-73
2022/07/22 08:38:36;;;;;;;12.23;4.28;;;21.00;63.00;;;;;;5063814;28;20040;-74
2022/07/22 08:41:03;;;;;;;11.73;4.13;;;20.90;63.20;;;;;;5058420;28;20052;-73
2022/07/22 08:43:31;;;;;;;11.38;4.00;;;21.10;62.60;;;;;;5063928;28;20455;-73
2022/07/22 08:45:57;;;;;;;9.82;3.88;;;21.10;61.90;;;;;;5065884;28;20472;-73
2022/07/22 08:48:23;;;;;;;11.25;3.50;;;21.10;61.80;;;;;;5063347;28;20828;-72
2022/07/22 08:50:49;;;;;;;9.18;3.97;;;21.10;62.00;;;;;;5059812;28;20094;-72
2022/07/22 08:53:14;;;;;;;10.32;3.63;;;21.30;61.10;;;;;;5058000;28;20049;-73
2022/07/22 08:55:42;;;;;;;13.45;4.35;;;21.10;61.60;;;;;;5054721;28;20072;-72
2022/07/22 08:58:08;;;;;;;10.35;3.55;;;21.00;62.50;;;;;;5056927;28;20033;-72
2022/07/22 09:00:34;;;;;;;11.50;3.88;;;21.10;62.40;;;;;;5059538;28;20044;-73
2022/07/22 09:03:00;;;;;;;14.63;4.68;;;21.40;62.30;;;;;;5059718;28;20055;-72
2022/07/22 09:05:33;;;;;;;12.23;4.63;;;21.70;60.10;;;;;;5062768;28;20529;-72
2022/07/22 09:07:59;;;;;;;14.13;4.80;;;21.80;60.00;;;;;;5059394;28;20288;-72
2022/07/22 09:10:31;;;;;;;12.68;5.15;;;22.00;60.30;;;;;;5059867;28;20044;-73
2022/07/22 09:13:04;;;;;;;14.25;6.75;;;22.20;58.60;;;;;;5057154;28;20615;-73
2022/07/22 09:15:32;;;;;;;13.13;6.95;;;22.20;58.30;;;;;;5058891;28;20125;-72
2022/07/22 09:17:59;;;;;;;14.40;7.60;;;22.00;58.80;;;;;;5059544;28;20056;-73
2022/07/22 09:20:26;;;;;;;11.02;6.68;;;22.00;59.40;;;;;;5062940;28;20442;-72
2022/07/22 09:22:52;;;;;;;12.13;6.95;;;21.90;60.20;;;;;;5066281;28;20051;-73
2022/07/22 09:25:20;;;;;;;13.95;7.30;;;22.10;60.10;;;;;;5059926;28;20044;-72
2022/07/22 09:27:46;;;;;;;16.52;6.63;;;22.40;59.70;;;;;;5064631;28;20127;-72
2022/07/22 09:30:26;;;;;;;13.20;6.72;;;22.60;57.90;;;;;;5061139;28;20040;-72
2022/07/22 09:32:56;;;;;;;14.27;7.25;;;22.60;58.10;;;;;;5060561;28;20954;-73
2022/07/22 09:35:22;;;;;;;15.88;6.72;;;22.30;57.50;;;;;;5060298;28;20035;-72
2022/07/22 09:37:57;;;;;;;14.93;6.95;;;22.20;59.30;;;;;;5056723;28;20047;-72
2022/07/22 09:40:26;;;;;;;;;;;22.50;57.90;;;;;;5058876;28;20063;-72
2022/07/22 09:42:57;;;;;;;11.20;6.25;;;22.70;57.40;;;;;;5064454;28;19920;-72
2022/07/22 09:45:25;;;;;;;9.90;5.55;;;23.20;57.20;;;;;;5058665;28;20120;-73
2022/07/22 09:47:53;;;;;;;12.73;6.82;;;23.30;55.90;;;;;;5060198;28;20114;-72
2022/07/22 09:50:29;;;;;;;11.00;5.75;;;23.10;55.50;;;;;;5060515;28;20119;-73
2022/07/22 09:52:57;;;;;;;11.73;6.38;;;22.60;56.50;;;;;;5058329;28;20045;-72
2022/07/22 09:55:24;;;;;;;11.25;6.15;;;22.70;57.30;;;;;;5056094;28;20064;-74
2022/07/22 09:57:52;;;;;;;13.48;6.60;;;22.30;58.50;;;;;;5057864;28;20028;-74
2022/07/22 10:00:23;;;;;;;12.18;7.28;;;22.20;58.60;;;;;;5061261;28;20044;-74
2022/07/22 10:02:56;;;;;;;12.27;7.72;;;22.40;57.80;;;;;;5058484;28;20192;-74
2022/07/22 10:05:28;;;;;;;14.10;8.10;;;22.10;58.30;;;;;;5058245;28;20109;-75
2022/07/22 10:07:55;;;;;;;13.35;7.38;;;22.40;58.10;;;;;;5057615;28;20082;-74
2022/07/22 10:10:25;;;;;;;16.85;7.07;;;22.90;56.50;;;;;;5057967;28;20052;-75
2022/07/22 10:12:54;;;;;;;12.43;8.18;;;22.60;57.00;;;;;;5055964;28;20032;-74
2022/07/22 10:15:21;;;;;;;12.63;7.57;;;22.40;57.10;;;;;;5059308;28;20049;-74
2022/07/22 10:17:49;;;;;;;11.35;7.30;;;22.30;57.80;;;;;;5058268;28;20103;-74
2022/07/22 10:20:19;;;;;;;13.82;7.60;;;22.80;57.00;;;;;;5059156;28;20545;-73
2022/07/22 10:22:58;;;;;;;11.73;8.68;;;23.10;55.10;;;;;;5060498;28;20048;-74
2022/07/22 10:25:32;;;;;;;13.85;8.82;;;22.90;56.50;;;;;;5057796;28;20037;-75
2022/07/22 10:28:02;;;;;;;14.85;9.50;;;23.10;55.30;;;;;;5056000;28;20147;-73
2022/07/22 10:30:40;;;;;;;14.50;10.13;;;23.10;55.30;;;;;;5056364;28;20183;-75
2022/07/22 10:33:14;;;;;;;14.65;11.30;;;22.90;55.80;;;;;;5056801;28;20499;-74
2022/07/22 10:35:43;;;;;;;;;;;22.80;57.70;;;;;;5057763;28;20054;-74
2022/07/22 10:38:11;;;;;;;14.77;11.07;;;23.00;56.70;;;;;;5054870;28;20003;-73
2022/07/22 10:40:57;;;;;;;18.25;11.48;;;22.80;57.00;;;;;;5064678;28;20056;-73
2022/07/22 10:43:30;;;;;;;16.55;12.77;;;22.90;57.60;;;;;;5056881;28;20480;-74
2022/07/22 10:46:02;;;;;;;19.63;12.70;;;22.50;57.70;;;;;;5058652;28;20055;-73
2022/07/22 10:48:38;;;;;;;16.98;14.70;;;22.70;57.40;;;;;;5057233;28;20266;-73
2022/07/22 10:51:10;;;;;;;17.45;13.45;;;22.50;57.10;;;;;;5056734;28;20384;-74
2022/07/22 10:53:57;;;;;;;13.73;12.25;;;22.80;56.00;;;;;;5056372;28;20040;-74
2022/07/22 10:56:29;;;;;;;15.27;13.60;;;22.90;56.30;;;;;;5058552;28;20101;-75
2022/07/22 10:59:12;;;;;;;16.20;13.80;;;23.30;55.00;;;;;;5061291;28;20031;-75
2022/07/22 11:01:46;;;;;;;18.60;13.43;;;23.30;54.50;;;;;;5057818;28;20439;-75
2022/07/22 11:04:16;;;;;;;;;;;23.60;55.40;;;;;;5059520;28;20040;-75
2022/07/22 11:06:43;;;;;;;17.40;12.68;;;23.60;53.30;;;;;;5060368;28;19917;-74
2022/07/22 11:09:11;;;;;;;14.68;10.73;;;23.50;55.20;;;;;;5056920;28;20113;-75
2022/07/22 11:11:50;;;;;;;16.10;9.98;;;23.30;54.60;;;;;;5056846;28;20055;-75
2022/07/22 11:14:19;;;;;;;13.23;9.90;;;23.50;54.30;;;;;;5056905;28;20063;-75
2022/07/22 11:16:47;;;;;;;13.07;9.68;;;23.60;53.80;;;;;;5060581;28;20033;-74
2022/07/22 11:19:13;;;;;;;14.93;9.63;;;23.60;54.30;;;;;;5059701;28;20047;-75
2022/07/22 11:21:39;;;;;;;13.07;8.38;;;24.00;54.50;;;;;;5059044;28;20132;-75
2022/07/22 11:24:07;;;;;;;13.65;9.00;;;24.50;52.80;;;;;;5064391;28;20040;-75
2022/07/22 11:26:54;;;;;;;11.25;7.72;;;24.50;51.20;;;;;;5062216;28;20522;-75
2022/07/22 11:29:35;;;;;;;10.07;7.40;;;24.10;52.80;;;;;;5058338;28;20048;-75
2022/07/22 11:32:03;;;;;;;10.63;7.55;;;24.10;53.70;;;;;;5064915;28;20037;-76
2022/07/22 11:34:29;;;;;;;11.20;8.57;;;24.50;52.00;;;;;;5065323;28;20506;-75
2022/07/22 11:36:57;;;;;;;14.38;8.20;;;24.40;51.90;;;;;;5059308;28;20040;-75
2022/07/22 11:39:28;;;;;;;13.60;8.75;;;24.60;51.90;;;;;;5065769;28;20775;-75
2022/07/22 11:41:56;;;;;;;14.32;9.07;;;24.70;51.60;;;;;;5064845;28;20446;-75
2022/07/22 11:44:26;;;;;;;12.20;8.70;;;24.80;50.80;;;;;;5063787;28;20043;-74
2022/07/22 11:46:52;;;;;;;11.23;8.23;;;24.70;50.20;;;;;;5059116;28;20511;-74
2022/07/22 11:49:20;;;;;;;13.63;8.77;;;24.10;52.30;;;;;;5059670;28;20087;-75
2022/07/22 11:51:47;;;;;;;12.38;8.82;;;23.90;52.50;;;;;;5061548;28;20039;-75
2022/07/22 11:54:13;;;;;;;12.98;9.00;;;23.80;52.70;;;;;;5057633;28;20037;-75
2022/07/22 11:56:40;;;;;;;15.48;10.00;;;23.50;53.60;;;;;;5063123;28;20056;-75
2022/07/22 11:59:08;;;;;;;12.57;9.48;;;24.00;53.40;;;;;;5061546;28;20529;-75
2022/07/22 12:01:36;;;;;;;13.65;9.98;;;23.80;53.70;;;;;;5055673;28;20775;-75
2022/07/22 12:04:06;;;;;;;11.95;9.93;;;23.60;52.90;;;;;;5061895;28;20111;-76
2022/07/22 12:06:38;;;;;;;12.57;8.80;;;23.80;53.70;;;;;;5065589;28;20049;-75
2022/07/22 12:09:10;;;;;;;13.82;10.20;;;24.10;53.40;;;;;;5056935;28;20056;-74
2022/07/22 12:11:42;;;;;;;15.10;9.38;;;24.60;51.40;;;;;;5060832;28;20375;-74
2022/07/22 12:14:14;;;;;;;12.27;8.32;;;25.10;51.90;;;;;;5057305;28;20033;-73
2022/07/22 12:16:42;;;;;;;13.35;10.05;;;25.10;51.00;;;;;;5062099;28;20724;-74
2022/07/22 12:19:10;;;;;;;13.60;9.82;;;24.60;51.50;;;;;;5056163;28;20037;-73
2022/07/22 12:21:55;;;;;;;14.90;10.90;;;24.10;52.80;;;;;;5055598;28;20186;-78
2022/07/22 12:24:30;;;;;;;15.43;10.43;;;24.30;52.00;;;;;;5063434;28;20048;-76
2022/07/22 12:26:58;;;;;;;16.23;11.65;;;24.30;53.00;;;;;;5061134;28;20063;-76
2022/07/22 12:29:27;;;;;;;14.45;10.48;;;24.60;51.90;;;;;;5059058;28;20059;-74
2022/07/22 12:31:57;;;;;;;13.68;9.35;;;24.60;52.20;;;;;;5059982;28;20040;-76
2022/07/22 12:34:30;;;;;;;14.30;11.90;;;24.70;52.40;;;;;;5062419;28;20332;-73
2022/07/22 12:36:56;;;;;;;14.20;11.20;;;24.60;51.30;;;;;;5056679;28;20412;-73